sensor_id;sensor_type;location;lat;lon;timestamp;pressure;altitude;pressure_sealevel;temperature;humidity
9855;BME280;4966;48.112;9.282;2023-04-28T00:02:05;94568.19;;;10.98;78.64
9855;BME280;4966;48.112;9.282;2023-04-28T00:04:30;94557.28;;;11.11;78.12
9855;BME280;4966;48.112;9.282;2023-04-28T00:06:56;94566.28;;;10.99;77.88
9855;BME280;4966;48.112;9.282;2023-04-28T00:09:25;94562.31;;;10.96;78.25
9855;BME280;4966;48.112;9.282;2023-04-28T00:11:51;94563.53;;;10.99;78.43
9855;BME280;4966;48.112;9.282;2023-04-28T00:14:22;94557.31;;;10.98;78.64
9855;BME280;4966;48.112;9.282;2023-04-28T00:16:48;94550.88;;;10.91;78.68
9855;BME280;4966;48.112;9.282;2023-04-28T00:19:14;94564.94;;;10.80;79.16
9855;BME280;4966;48.112;9.282;2023-04-28T00:21:42;94564.81;;;10.89;78.88
9855;BME280;4966;48.112;9.282;2023-04-28T00:24:11;94560.06;;;10.86;78.98
9855;BME280;4966;48.112;9.282;2023-04-28T00:26:37;94570.16;;;10.85;79.25
9855;BME280;4966;48.112;9.282;2023-04-28T00:29:08;94566.75;;;10.89;79.04
9855;BME280;4966;48.112;9.282;2023-04-28T00:31:33;94562.22;;;10.93;78.32
9855;BME280;4966;48.112;9.282;2023-04-28T00:33:59;94551.66;;;10.91;78.67
9855;BME280;4966;48.112;9.282;2023-04-28T00:36:25;94553.94;;;10.89;79.04
9855;BME280;4966;48.112;9.282;2023-04-28T00:38:55;94549.50;;;10.84;79.45
9855;BME280;4966;48.112;9.282;2023-04-28T00:41:24;94556.31;;;10.91;79.64
9855;BME280;4966;48.112;9.282;2023-04-28T00:43:49;94562.78;;;10.86;79.78
9855;BME280;4966;48.112;9.282;2023-04-28T00:46:30;94550.50;;;11.04;78.63
9855;BME280;4966;48.112;9.282;2023-04-28T00:49:01;94555.59;;;11.18;77.68
9855;BME280;4966;48.112;9.282;2023-04-28T00:51:29;94561.50;;;11.08;78.04
9855;BME280;4966;48.112;9.282;2023-04-28T00:53:56;94547.56;;;10.97;78.81
9855;BME280;4966;48.112;9.282;2023-04-28T00:56:22;94549.84;;;10.95;79.05
9855;BME280;4966;48.112;9.282;2023-04-28T00:58:47;94542.00;;;10.94;79.24
9855;BME280;4966;48.112;9.282;2023-04-28T01:01:19;94535.44;;;10.95;79.47
9855;BME280;4966;48.112;9.282;2023-04-28T01:03:45;94536.13;;;11.04;78.78
9855;BME280;4966;48.112;9.282;2023-04-28T01:06:11;94533.19;;;10.97;78.82
9855;BME280;4966;48.112;9.282;2023-04-28T01:08:46;94531.94;;;10.94;79.35
9855;BME280;4966;48.112;9.282;2023-04-28T01:11:17;94527.13;;;11.03;78.87
9855;BME280;4966;48.112;9.282;2023-04-28T01:13:45;94526.81;;;11.05;78.97
9855;BME280;4966;48.112;9.282;2023-04-28T01:16:11;94522.56;;;11.20;78.21
9855;BME280;4966;48.112;9.282;2023-04-28T01:18:41;94516.06;;;11.24;77.88
9855;BME280;4966;48.112;9.282;2023-04-28T01:21:08;94523.03;;;11.10;78.65
9855;BME280;4966;48.112;9.282;2023-04-28T01:23:37;94516.38;;;11.07;78.96
9855;BME280;4966;48.112;9.282;2023-04-28T01:26:05;94511.47;;;11.13;79.03
9855;BME280;4966;48.112;9.282;2023-04-28T01:28:31;94511.31;;;11.21;78.25
9855;BME280;4966;48.112;9.282;2023-04-28T01:31:00;94512.94;;;11.10;78.68
9855;BME280;4966;48.112;9.282;2023-04-28T01:33:28;94511.25;;;11.05;77.83
9855;BME280;4966;48.112;9.282;2023-04-28T01:36:00;94510.97;;;10.95;78.61
9855;BME280;4966;48.112;9.282;2023-04-28T01:38:29;94504.94;;;11.01;78.40
9855;BME280;4966;48.112;9.282;2023-04-28T01:40:55;94514.09;;;11.09;78.47
9855;BME280;4966;48.112;9.282;2023-04-28T01:43:23;94515.28;;;11.24;77.77
9855;BME280;4966;48.112;9.282;2023-04-28T01:45:49;94511.81;;;11.11;78.62
9855;BME280;4966;48.112;9.282;2023-04-28T01:48:14;94520.91;;;11.03;79.51
9855;BME280;4966;48.112;9.282;2023-04-28T01:50:42;94520.88;;;11.15;79.07
9855;BME280;4966;48.112;9.282;2023-04-28T01:53:08;94515.88;;;11.17;78.90
9855;BME280;4966;48.112;9.282;2023-04-28T01:55:34;94516.31;;;11.19;78.88
9855;BME280;4966;48.112;9.282;2023-04-28T01:58:00;94509.22;;;11.02;79.23
9855;BME280;4966;48.112;9.282;2023-04-28T02:00:25;94509.78;;;11.08;79.07
9855;BME280;4966;48.112;9.282;2023-04-28T02:02:54;94519.78;;;11.04;79.30
9855;BME280;4966;48.112;9.282;2023-04-28T02:05:28;94510.38;;;11.01;79.47
9855;BME280;4966;48.112;9.282;2023-04-28T02:07:59;94509.09;;;11.11;79.01
9855;BME280;4966;48.112;9.282;2023-04-28T02:10:24;94512.31;;;11.29;77.93
9855;BME280;4966;48.112;9.282;2023-04-28T02:12:53;94504.94;;;11.29;78.03
9855;BME280;4966;48.112;9.282;2023-04-28T02:15:19;94505.13;;;11.37;77.73
9855;BME280;4966;48.112;9.282;2023-04-28T02:17:46;94511.38;;;11.37;77.72
9855;BME280;4966;48.112;9.282;2023-04-28T02:20:12;94514.94;;;11.25;77.54
9855;BME280;4966;48.112;9.282;2023-04-28T02:22:39;94509.72;;;11.20;78.00
9855;BME280;4966;48.112;9.282;2023-04-28T02:25:08;94509.50;;;11.25;77.99
9855;BME280;4966;48.112;9.282;2023-04-28T02:27:40;94517.44;;;11.31;77.49
9855;BME280;4966;48.112;9.282;2023-04-28T02:30:07;94517.63;;;10.97;79.49
9855;BME280;4966;48.112;9.282;2023-04-28T02:32:39;94509.09;;;11.11;78.69
9855;BME280;4966;48.112;9.282;2023-04-28T02:35:05;94508.84;;;11.16;78.46
9855;BME280;4966;48.112;9.282;2023-04-28T02:37:34;94505.63;;;11.26;77.83
9855;BME280;4966;48.112;9.282;2023-04-28T02:40:02;94502.25;;;11.17;78.17
9855;BME280;4966;48.112;9.282;2023-04-28T02:42:28;94512.75;;;11.31;77.44
9855;BME280;4966;48.112;9.282;2023-04-28T02:44:54;94510.28;;;11.26;77.56
9855;BME280;4966;48.112;9.282;2023-04-28T02:47:23;94516.66;;;11.18;77.83
9855;BME280;4966;48.112;9.282;2023-04-28T02:49:49;94505.34;;;11.03;78.33
9855;BME280;4966;48.112;9.282;2023-04-28T02:52:15;94506.69;;;10.69;79.39
9855;BME280;4966;48.112;9.282;2023-04-28T02:54:46;94509.84;;;10.83;79.25
9855;BME280;4966;48.112;9.282;2023-04-28T02:57:16;94513.16;;;10.64;80.34
9855;BME280;4966;48.112;9.282;2023-04-28T02:59:41;94520.19;;;10.78;80.05
9855;BME280;4966;48.112;9.282;2023-04-28T03:02:10;94523.78;;;10.82;80.43
9855;BME280;4966;48.112;9.282;2023-04-28T03:04:37;94525.59;;;10.90;80.18
9855;BME280;4966;48.112;9.282;2023-04-28T03:07:03;94526.59;;;10.98;80.49
9855;BME280;4966;48.112;9.282;2023-04-28T03:09:28;94529.75;;;11.00;80.66
9855;BME280;4966;48.112;9.282;2023-04-28T03:11:57;94529.44;;;11.01;80.39
9855;BME280;4966;48.112;9.282;2023-04-28T03:14:23;94521.38;;;10.93;81.00
9855;BME280;4966;48.112;9.282;2023-04-28T03:16:51;94519.22;;;10.98;81.41
9855;BME280;4966;48.112;9.282;2023-04-28T03:19:22;94521.06;;;10.94;82.50
9855;BME280;4966;48.112;9.282;2023-04-28T03:21:51;94515.13;;;11.04;81.58
9855;BME280;4966;48.112;9.282;2023-04-28T03:24:16;94516.84;;;10.97;82.25
9855;BME280;4966;48.112;9.282;2023-04-28T03:26:45;94517.53;;;10.94;82.89
9855;BME280;4966;48.112;9.282;2023-04-28T03:29:11;94506.97;;;11.04;82.67
9855;BME280;4966;48.112;9.282;2023-04-28T03:31:40;94513.81;;;10.86;83.55
9855;BME280;4966;48.112;9.282;2023-04-28T03:34:05;94516.84;;;10.84;84.14
9855;BME280;4966;48.112;9.282;2023-04-28T03:36:37;94521.47;;;10.96;83.86
9855;BME280;4966;48.112;9.282;2023-04-28T03:39:07;94511.88;;;10.86;84.28
9855;BME280;4966;48.112;9.282;2023-04-28T03:41:37;94517.44;;;10.90;84.88
9855;BME280;4966;48.112;9.282;2023-04-28T03:44:06;94514.34;;;10.92;84.97
9855;BME280;4966;48.112;9.282;2023-04-28T03:46:32;94520.91;;;11.03;84.82
9855;BME280;4966;48.112;9.282;2023-04-28T03:49:01;94505.97;;;10.97;85.37
9855;BME280;4966;48.112;9.282;2023-04-28T03:51:28;94506.75;;;10.97;85.76
9855;BME280;4966;48.112;9.282;2023-04-28T03:54:00;94495.81;;;11.10;84.78
9855;BME280;4966;48.112;9.282;2023-04-28T03:56:25;94503.94;;;10.81;85.68
9855;BME280;4966;48.112;9.282;2023-04-28T03:58:51;94501.00;;;10.74;86.05
9855;BME280;4966;48.112;9.282;2023-04-28T04:01:17;94508.25;;;10.70;86.75
9855;BME280;4966;48.112;9.282;2023-04-28T04:03:46;94515.41;;;10.75;86.94
9855;BME280;4966;48.112;9.282;2023-04-28T04:06:18;94502.34;;;10.93;86.10
9855;BME280;4966;48.112;9.282;2023-04-28T04:08:47;94506.53;;;10.90;86.75
9855;BME280;4966;48.112;9.282;2023-04-28T04:11:13;94496.19;;;10.96;86.79
9855;BME280;4966;48.112;9.282;2023-04-28T04:13:42;94511.38;;;11.09;86.74
9855;BME280;4966;48.112;9.282;2023-04-28T04:16:08;94511.63;;;11.04;86.77
9855;BME280;4966;48.112;9.282;2023-04-28T04:18:34;94507.88;;;11.09;86.88
9855;BME280;4966;48.112;9.282;2023-04-28T04:21:06;94507.25;;;11.15;85.76
9855;BME280;4966;48.112;9.282;2023-04-28T04:23:31;94502.25;;;11.17;85.63
9855;BME280;4966;48.112;9.282;2023-04-28T04:25:57;94492.91;;;11.31;85.90
9855;BME280;4966;48.112;9.282;2023-04-28T04:28:23;94504.69;;;11.35;84.37
9855;BME280;4966;48.112;9.282;2023-04-28T04:30:52;94495.50;;;11.11;85.88
9855;BME280;4966;48.112;9.282;2023-04-28T04:33:21;94487.03;;;11.28;85.19
9855;BME280;4966;48.112;9.282;2023-04-28T04:35:50;94495.69;;;11.18;84.78
9855;BME280;4966;48.112;9.282;2023-04-28T04:38:15;94495.16;;;11.00;86.01
9855;BME280;4966;48.112;9.282;2023-04-28T04:40:46;94498.47;;;10.94;87.12
9855;BME280;4966;48.112;9.282;2023-04-28T04:43:12;94487.06;;;11.16;86.97
9855;BME280;4966;48.112;9.282;2023-04-28T04:45:38;94488.28;;;10.91;89.50
9855;BME280;4966;48.112;9.282;2023-04-28T04:48:07;94487.34;;;10.99;88.65
9855;BME280;4966;48.112;9.282;2023-04-28T04:50:33;94487.34;;;10.99;88.92
9855;BME280;4966;48.112;9.282;2023-04-28T04:52:59;94498.00;;;11.32;86.80
9855;BME280;4966;48.112;9.282;2023-04-28T04:55:27;94489.16;;;11.07;87.75
9855;BME280;4966;48.112;9.282;2023-04-28T04:57:53;94488.81;;;11.09;87.97
9855;BME280;4966;48.112;9.282;2023-04-28T05:00:19;94491.09;;;11.06;88.18
9855;BME280;4966;48.112;9.282;2023-04-28T05:02:46;94491.75;;;11.32;86.50
9855;BME280;4966;48.112;9.282;2023-04-28T05:05:14;94485.34;;;11.24;85.88
9855;BME280;4966;48.112;9.282;2023-04-28T05:07:40;94481.63;;;11.16;86.35
9855;BME280;4966;48.112;9.282;2023-04-28T05:10:10;94495.50;;;11.11;87.32
9855;BME280;4966;48.112;9.282;2023-04-28T05:12:44;94490.63;;;11.04;88.16
9855;BME280;4966;48.112;9.282;2023-04-28T05:15:15;94488.34;;;11.06;88.32
9855;BME280;4966;48.112;9.282;2023-04-28T05:17:41;94485.38;;;11.12;88.75
9855;BME280;4966;48.112;9.282;2023-04-28T05:20:08;94485.47;;;11.15;89.04
9855;BME280;4966;48.112;9.282;2023-04-28T05:22:38;94479.34;;;11.18;89.15
9855;BME280;4966;48.112;9.282;2023-04-28T05:25:07;94480.78;;;11.28;89.02
9855;BME280;4966;48.112;9.282;2023-04-28T05:27:33;94476.38;;;11.23;89.62
9855;BME280;4966;48.112;9.282;2023-04-28T05:29:59;94483.75;;;10.95;91.27
9855;BME280;4966;48.112;9.282;2023-04-28T05:32:25;94478.94;;;11.04;91.14
9855;BME280;4966;48.112;9.282;2023-04-28T05:34:53;94478.09;;;10.88;91.81
9855;BME280;4966;48.112;9.282;2023-04-28T05:37:23;94477.94;;;10.96;91.86
9855;BME280;4966;48.112;9.282;2023-04-28T05:39:49;94486.97;;;11.13;91.35
9855;BME280;4966;48.112;9.282;2023-04-28T05:42:15;94484.50;;;11.36;90.03
9855;BME280;4966;48.112;9.282;2023-04-28T05:44:42;94492.41;;;11.41;89.38
9855;BME280;4966;48.112;9.282;2023-04-28T05:47:13;94490.88;;;11.27;90.29
9855;BME280;4966;48.112;9.282;2023-04-28T05:49:41;94495.91;;;11.25;90.63
9855;BME280;4966;48.112;9.282;2023-04-28T05:52:10;94494.22;;;11.21;91.16
9855;BME280;4966;48.112;9.282;2023-04-28T05:54:38;94491.44;;;11.33;91.23
9855;BME280;4966;48.112;9.282;2023-04-28T05:57:07;94485.22;;;11.20;92.38
9855;BME280;4966;48.112;9.282;2023-04-28T05:59:33;94486.63;;;11.42;91.11
9855;BME280;4966;48.112;9.282;2023-04-28T06:01:59;94486.78;;;11.34;92.46
9855;BME280;4966;48.112;9.282;2023-04-28T06:04:28;94490.34;;;11.50;91.58
9855;BME280;4966;48.112;9.282;2023-04-28T06:06:54;94495.84;;;11.54;91.34
9855;BME280;4966;48.112;9.282;2023-04-28T06:09:20;94488.72;;;11.49;91.77
9855;BME280;4966;48.112;9.282;2023-04-28T06:11:46;94486.94;;;11.69;90.95
9855;BME280;4966;48.112;9.282;2023-04-28T06:14:12;94497.09;;;11.56;91.20
9855;BME280;4966;48.112;9.282;2023-04-28T06:16:40;94494.38;;;11.56;91.09
9855;BME280;4966;48.112;9.282;2023-04-28T06:19:06;94492.34;;;11.53;91.41
9855;BME280;4966;48.112;9.282;2023-04-28T06:21:32;94489.09;;;11.63;91.61
9855;BME280;4966;48.112;9.282;2023-04-28T06:24:01;94493.69;;;11.75;91.15
9855;BME280;4966;48.112;9.282;2023-04-28T06:26:27;94484.94;;;11.82;91.42
9855;BME280;4966;48.112;9.282;2023-04-28T06:28:53;94483.97;;;11.74;91.61
9855;BME280;4966;48.112;9.282;2023-04-28T06:31:22;94480.75;;;12.00;90.72
9855;BME280;4966;48.112;9.282;2023-04-28T06:33:51;94480.47;;;11.89;91.05
9855;BME280;4966;48.112;9.282;2023-04-28T06:36:16;94487.69;;;11.98;91.23
9855;BME280;4966;48.112;9.282;2023-04-28T06:38:43;94477.22;;;12.16;90.72
9855;BME280;4966;48.112;9.282;2023-04-28T06:41:12;94486.28;;;12.20;91.14
9855;BME280;4966;48.112;9.282;2023-04-28T06:43:38;94479.69;;;12.37;88.87
9855;BME280;4966;48.112;9.282;2023-04-28T06:46:04;94484.28;;;12.17;89.03
9855;BME280;4966;48.112;9.282;2023-04-28T06:48:35;94483.47;;;12.16;88.52
9855;BME280;4966;48.112;9.282;2023-04-28T06:51:01;94479.31;;;12.06;89.17
9855;BME280;4966;48.112;9.282;2023-04-28T06:53:27;94484.34;;;12.20;89.35
9855;BME280;4966;48.112;9.282;2023-04-28T06:55:53;94479.50;;;12.13;90.29
9855;BME280;4966;48.112;9.282;2023-04-28T06:58:24;94477.16;;;12.12;90.06
9855;BME280;4966;48.112;9.282;2023-04-28T07:00:50;94471.25;;;12.10;90.54
9855;BME280;4966;48.112;9.282;2023-04-28T07:03:18;94470.47;;;12.09;90.87
9855;BME280;4966;48.112;9.282;2023-04-28T07:05:44;94472.94;;;12.15;91.30
9855;BME280;4966;48.112;9.282;2023-04-28T07:08:13;94473.00;;;12.34;89.84
9855;BME280;4966;48.112;9.282;2023-04-28T07:10:40;94458.47;;;12.46;89.03
9855;BME280;4966;48.112;9.282;2023-04-28T07:13:05;94467.69;;;12.41;89.53
9855;BME280;4966;48.112;9.282;2023-04-28T07:15:31;94461.97;;;12.46;89.68
9855;BME280;4966;48.112;9.282;2023-04-28T07:17:57;94461.41;;;12.56;89.30
9855;BME280;4966;48.112;9.282;2023-04-28T07:20:23;94453.38;;;12.64;90.05
9855;BME280;4966;48.112;9.282;2023-04-28T07:22:48;94450.00;;;12.51;91.00
9855;BME280;4966;48.112;9.282;2023-04-28T07:25:14;94453.75;;;12.62;91.30
9855;BME280;4966;48.112;9.282;2023-04-28T07:27:40;94451.47;;;12.64;91.80
9855;BME280;4966;48.112;9.282;2023-04-28T07:30:07;94456.78;;;12.57;93.22
9855;BME280;4966;48.112;9.282;2023-04-28T07:32:35;94450.75;;;12.67;93.85
9855;BME280;4966;48.112;9.282;2023-04-28T07:35:04;94452.72;;;12.86;93.51
9855;BME280;4966;48.112;9.282;2023-04-28T07:37:33;94455.16;;;12.91;93.85
9855;BME280;4966;48.112;9.282;2023-04-28T07:39:59;94453.38;;;12.64;96.14
9855;BME280;4966;48.112;9.282;2023-04-28T07:42:25;94455.13;;;12.72;95.70
9855;BME280;4966;48.112;9.282;2023-04-28T07:44:54;94458.75;;;12.95;95.02
9855;BME280;4966;48.112;9.282;2023-04-28T07:47:22;94461.25;;;12.85;96.07
9855;BME280;4966;48.112;9.282;2023-04-28T07:49:48;94455.47;;;13.06;94.55
9855;BME280;4966;48.112;9.282;2023-04-28T07:52:16;94460.47;;;12.84;97.13
9855;BME280;4966;48.112;9.282;2023-04-28T07:54:42;94465.19;;;12.87;97.80
9855;BME280;4966;48.112;9.282;2023-04-28T07:57:08;94457.00;;;12.87;98.07
9855;BME280;4966;48.112;9.282;2023-04-28T07:59:35;94456.88;;;12.99;97.02
9855;BME280;4966;48.112;9.282;2023-04-28T08:02:01;94458.47;;;12.81;97.73
9855;BME280;4966;48.112;9.282;2023-04-28T08:04:30;94461.13;;;12.62;99.22
9855;BME280;4966;48.112;9.282;2023-04-28T08:06:58;94467.56;;;12.69;98.62
9855;BME280;4966;48.112;9.282;2023-04-28T08:09:24;94483.44;;;12.48;100.00
9855;BME280;4966;48.112;9.282;2023-04-28T08:11:53;94486.19;;;12.32;100.00
9855;BME280;4966;48.112;9.282;2023-04-28T08:14:19;94484.00;;;12.22;100.00
9855;BME280;4966;48.112;9.282;2023-04-28T08:16:45;94458.56;;;12.33;100.00
9855;BME280;4966;48.112;9.282;2023-04-28T08:19:11;94470.72;;;12.20;100.00
9855;BME280;4966;48.112;9.282;2023-04-28T08:21:40;94476.78;;;12.29;100.00
9855;BME280;4966;48.112;9.282;2023-04-28T08:24:06;94479.56;;;12.49;100.00
9855;BME280;4966;48.112;9.282;2023-04-28T08:26:35;94482.84;;;12.39;100.00
9855;BME280;4966;48.112;9.282;2023-04-28T08:29:07;94475.72;;;12.34;100.00
9855;BME280;4966;48.112;9.282;2023-04-28T08:31:36;94482.47;;;12.40;100.00
9855;BME280;4966;48.112;9.282;2023-04-28T08:34:06;94461.19;;;12.30;100.00
9855;BME280;4966;48.112;9.282;2023-04-28T08:36:35;94462.25;;;12.25;100.00
9855;BME280;4966;48.112;9.282;2023-04-28T08:39:00;94460.84;;;12.16;100.00
9855;BME280;4966;48.112;9.282;2023-04-28T08:41:31;94472.91;;;12.30;100.00
9855;BME280;4966;48.112;9.282;2023-04-28T08:43:59;94477.72;;;12.37;100.00
9855;BME280;4966;48.112;9.282;2023-04-28T08:46:29;94477.56;;;12.30;100.00
9855;BME280;4966;48.112;9.282;2023-04-28T08:48:59;94483.50;;;12.51;100.00
9855;BME280;4966;48.112;9.282;2023-04-28T08:51:34;94491.81;;;12.39;100.00
9855;BME280;4966;48.112;9.282;2023-04-28T08:54:02;94499.81;;;12.48;100.00
9855;BME280;4966;48.112;9.282;2023-04-28T08:56:32;94499.63;;;12.56;100.00
9855;BME280;4966;48.112;9.282;2023-04-28T08:59:03;94505.78;;;12.53;100.00
9855;BME280;4966;48.112;9.282;2023-04-28T09:01:35;94495.81;;;12.96;100.00
9855;BME280;4966;48.112;9.282;2023-04-28T09:04:04;94497.91;;;13.03;100.00
9855;BME280;4966;48.112;9.282;2023-04-28T09:06:31;94506.31;;;13.14;100.00
9855;BME280;4966;48.112;9.282;2023-04-28T09:09:23;94510.72;;;13.18;100.00
9855;BME280;4966;48.112;9.282;2023-04-28T09:11:50;94503.28;;;13.35;99.68
9855;BME280;4966;48.112;9.282;2023-04-28T09:14:16;94505.06;;;13.47;98.12
9855;BME280;4966;48.112;9.282;2023-04-28T09:16:50;94507.34;;;13.06;100.00
9855;BME280;4966;48.112;9.282;2023-04-28T09:19:19;94523.81;;;13.29;100.00
9855;BME280;4966;48.112;9.282;2023-04-28T09:21:52;94516.63;;;13.20;100.00
9855;BME280;4966;48.112;9.282;2023-04-28T09:24:34;94516.47;;;13.13;100.00
9855;BME280;4966;48.112;9.282;2023-04-28T09:27:06;94516.16;;;13.34;100.00
9855;BME280;4966;48.112;9.282;2023-04-28T09:29:38;94521.44;;;13.08;100.00
9855;BME280;4966;48.112;9.282;2023-04-28T09:32:22;94526.50;;;13.64;100.00
9855;BME280;4966;48.112;9.282;2023-04-28T09:34:52;94528.75;;;13.23;100.00
9855;BME280;4966;48.112;9.282;2023-04-28T09:37:27;94520.84;;;13.18;100.00
9855;BME280;4966;48.112;9.282;2023-04-28T09:40:02;94527.75;;;13.12;100.00
9855;BME280;4966;48.112;9.282;2023-04-28T09:45:06;94533.28;;;13.31;100.00
9855;BME280;4966;48.112;9.282;2023-04-28T09:47:37;94531.28;;;13.12;100.00
9855;BME280;4966;48.112;9.282;2023-04-28T09:50:05;94532.53;;;13.54;100.00
9855;BME280;4966;48.112;9.282;2023-04-28T09:52:39;94532.47;;;13.50;100.00
9855;BME280;4966;48.112;9.282;2023-04-28T09:55:06;94526.50;;;13.64;100.00
9855;BME280;4966;48.112;9.282;2023-04-28T09:57:35;94529.84;;;13.96;100.00
9855;BME280;4966;48.112;9.282;2023-04-28T10:00:06;94525.38;;;13.88;99.53
9855;BME280;4966;48.112;9.282;2023-04-28T10:02:36;94541.97;;;13.56;100.00
9855;BME280;4966;48.112;9.282;2023-04-28T10:05:05;94534.41;;;13.69;100.00
9855;BME280;4966;48.112;9.282;2023-04-28T10:07:35;94526.88;;;13.63;100.00
9855;BME280;4966;48.112;9.282;2023-04-28T10:10:08;94527.66;;;13.44;100.00
9855;BME280;4966;48.112;9.282;2023-04-28T10:12:37;94528.09;;;13.65;100.00
9855;BME280;4966;48.112;9.282;2023-04-28T10:15:03;94520.41;;;14.17;99.84
9855;BME280;4966;48.112;9.282;2023-04-28T10:17:31;94510.88;;;13.84;99.36
9855;BME280;4966;48.112;9.282;2023-04-28T10:20:01;94498.22;;;14.22;99.12
9855;BME280;4966;48.112;9.282;2023-04-28T10:25:29;94514.34;;;14.04;99.01
9855;BME280;4966;48.112;9.282;2023-04-28T10:28:08;94520.47;;;14.66;95.94
9855;BME280;4966;48.112;9.282;2023-04-28T10:30:34;94519.03;;;14.26;95.78
9855;BME280;4966;48.112;9.282;2023-04-28T10:33:21;94522.91;;;14.72;94.98
9855;BME280;4966;48.112;9.282;2023-04-28T10:35:49;94520.16;;;14.98;94.37
9855;BME280;4966;48.112;9.282;2023-04-28T10:38:18;94524.72;;;15.17;92.87
9855;BME280;4966;48.112;9.282;2023-04-28T10:40:51;94532.06;;;14.56;97.24
9855;BME280;4966;48.112;9.282;2023-04-28T10:48:22;94534.97;;;14.44;97.02
9855;BME280;4966;48.112;9.282;2023-04-28T10:56:09;94536.28;;;14.08;99.81
9855;BME280;4966;48.112;9.282;2023-04-28T10:58:39;94540.72;;;14.39;99.41
9855;BME280;4966;48.112;9.282;2023-04-28T11:01:32;94537.53;;;13.91;100.00
9855;BME280;4966;48.112;9.282;2023-04-28T11:04:08;94527.03;;;13.93;100.00
9855;BME280;4966;48.112;9.282;2023-04-28T11:07:10;94530.88;;;14.11;100.00
9855;BME280;4966;48.112;9.282;2023-04-28T11:12:07;94526.16;;;14.54;99.12
9855;BME280;4966;48.112;9.282;2023-04-28T11:14:40;94518.59;;;14.47;98.51
9855;BME280;4966;48.112;9.282;2023-04-28T11:17:09;94521.16;;;14.60;97.80
9855;BME280;4966;48.112;9.282;2023-04-28T11:19:43;94522.25;;;14.82;98.07
9855;BME280;4966;48.112;9.282;2023-04-28T11:22:35;94520.66;;;15.04;98.17
9855;BME280;4966;48.112;9.282;2023-04-28T11:25:01;94529.78;;;15.15;96.61
9855;BME280;4966;48.112;9.282;2023-04-28T11:27:32;94527.66;;;15.01;96.30
9855;BME280;4966;48.112;9.282;2023-04-28T11:30:02;94524.47;;;15.26;95.47
9855;BME280;4966;48.112;9.282;2023-04-28T11:32:34;94530.78;;;14.77;97.41
9855;BME280;4966;48.112;9.282;2023-04-28T11:35:01;94533.00;;;14.44;96.97
9855;BME280;4966;48.112;9.282;2023-04-28T11:37:28;94525.81;;;14.82;99.15
9855;BME280;4966;48.112;9.282;2023-04-28T11:39:56;94525.81;;;15.09;98.43
9855;BME280;4966;48.112;9.282;2023-04-28T11:42:22;94531.75;;;15.15;97.38
9855;BME280;4966;48.112;9.282;2023-04-28T11:44:51;94533.72;;;15.18;96.48
9855;BME280;4966;48.112;9.282;2023-04-28T11:47:31;94521.34;;;15.27;97.81
9855;BME280;4966;48.112;9.282;2023-04-28T11:50:02;94516.28;;;14.99;96.40
9855;BME280;4966;48.112;9.282;2023-04-28T11:52:30;94521.13;;;15.13;97.50
9855;BME280;4966;48.112;9.282;2023-04-28T11:54:58;94521.38;;;15.31;96.99
9855;BME280;4966;48.112;9.282;2023-04-28T11:57:26;94517.88;;;15.64;96.12
9855;BME280;4966;48.112;9.282;2023-04-28T11:59:52;94521.75;;;15.29;97.41
9855;BME280;4966;48.112;9.282;2023-04-28T12:02:29;94512.91;;;15.40;97.66
9855;BME280;4966;48.112;9.282;2023-04-28T12:04:55;94518.38;;;15.40;97.62
9855;BME280;4966;48.112;9.282;2023-04-28T12:07:23;94516.25;;;15.60;97.40
9855;BME280;4966;48.112;9.282;2023-04-28T12:10:14;94520.97;;;15.59;98.00
9855;BME280;4966;48.112;9.282;2023-04-28T12:12:44;94526.00;;;15.23;98.26
9855;BME280;4966;48.112;9.282;2023-04-28T12:15:12;94525.16;;;15.19;97.92
9855;BME280;4966;48.112;9.282;2023-04-28T12:17:43;94525.91;;;14.89;100.00
9855;BME280;4966;48.112;9.282;2023-04-28T12:20:33;94518.00;;;15.11;98.59
9855;BME280;4966;48.112;9.282;2023-04-28T12:22:59;94526.34;;;15.22;99.04
9855;BME280;4966;48.112;9.282;2023-04-28T12:25:27;94514.34;;;15.98;95.11
9855;BME280;4966;48.112;9.282;2023-04-28T12:30:28;94515.50;;;16.37;92.62
9855;BME280;4966;48.112;9.282;2023-04-28T12:32:56;94500.75;;;16.53;92.23
9855;BME280;4966;48.112;9.282;2023-04-28T12:35:28;94496.34;;;16.45;91.43
9855;BME280;4966;48.112;9.282;2023-04-28T12:37:58;94500.41;;;16.62;91.27
9855;BME280;4966;48.112;9.282;2023-04-28T12:40:25;94495.94;;;16.94;91.01
9855;BME280;4966;48.112;9.282;2023-04-28T12:42:51;94499.28;;;16.70;93.87
9855;BME280;4966;48.112;9.282;2023-04-28T12:45:20;94496.66;;;16.80;92.17
9855;BME280;4966;48.112;9.282;2023-04-28T12:47:51;94495.09;;;16.83;91.58
9855;BME280;4966;48.112;9.282;2023-04-28T12:50:19;94494.34;;;16.90;93.54
9855;BME280;4966;48.112;9.282;2023-04-28T12:52:44;94496.31;;;16.41;93.93
9855;BME280;4966;48.112;9.282;2023-04-28T12:55:10;94492.88;;;16.51;92.91
9855;BME280;4966;48.112;9.282;2023-04-28T12:57:36;94495.16;;;16.42;93.57
9855;BME280;4966;48.112;9.282;2023-04-28T13:00:07;94485.94;;;17.31;92.33
9855;BME280;4966;48.112;9.282;2023-04-28T13:02:35;94496.00;;;17.85;87.50
9855;BME280;4966;48.112;9.282;2023-04-28T13:05:04;94488.91;;;17.81;85.75
9855;BME280;4966;48.112;9.282;2023-04-28T13:07:30;94485.06;;;19.00;82.63
9855;BME280;4966;48.112;9.282;2023-04-28T13:09:58;94491.38;;;18.79;79.26
9855;BME280;4966;48.112;9.282;2023-04-28T13:12:26;94487.38;;;19.30;77.94
9855;BME280;4966;48.112;9.282;2023-04-28T13:14:55;94479.09;;;19.30;78.29
9855;BME280;4966;48.112;9.282;2023-04-28T13:17:20;94483.50;;;18.96;78.63
9855;BME280;4966;48.112;9.282;2023-04-28T13:19:49;94483.50;;;18.88;79.37
9855;BME280;4966;48.112;9.282;2023-04-28T13:22:18;94476.00;;;18.96;79.31
9855;BME280;4966;48.112;9.282;2023-04-28T13:24:46;94464.31;;;19.87;77.63
9855;BME280;4966;48.112;9.282;2023-04-28T13:27:12;94473.00;;;19.75;77.17
9855;BME280;4966;48.112;9.282;2023-04-28T13:29:37;94460.94;;;19.37;75.87
9855;BME280;4966;48.112;9.282;2023-04-28T13:32:03;94470.91;;;18.84;80.01
9855;BME280;4966;48.112;9.282;2023-04-28T13:34:34;94455.50;;;19.08;81.03
9855;BME280;4966;48.112;9.282;2023-04-28T13:37:03;94457.88;;;19.13;78.72
9855;BME280;4966;48.112;9.282;2023-04-28T13:39:29;94449.22;;;19.07;77.71
9855;BME280;4966;48.112;9.282;2023-04-28T13:41:54;94447.25;;;19.04;80.05
9855;BME280;4966;48.112;9.282;2023-04-28T13:44:20;94451.44;;;19.48;75.74
9855;BME280;4966;48.112;9.282;2023-04-28T13:46:48;94449.28;;;18.68;80.02
9855;BME280;4966;48.112;9.282;2023-04-28T13:49:14;94436.84;;;19.48;76.05